sensor_id;sensor_type;location;lat;lon;timestamp;temperature;humidity
26583;DHT22;14230;45.382;10.998;2023-04-25T00:00:31;13.10;99.90
26583;DHT22;14230;45.382;10.998;2023-04-25T00:02:58;13.20;99.90
26583;DHT22;14230;45.382;10.998;2023-04-25T00:05:27;13.20;99.90
26583;DHT22;14230;45.382;10.998;2023-04-25T00:07:54;13.20;99.90
26583;DHT22;14230;45.382;10.998;2023-04-25T00:10:22;13.20;99.90
26583;DHT22;14230;45.382;10.998;2023-04-25T00:12:49;13.20;99.90
26583;DHT22;14230;45.382;10.998;2023-04-25T00:15:17;13.30;99.90
26583;DHT22;14230;45.382;10.998;2023-04-25T00:17:44;13.30;99.90
26583;DHT22;14230;45.382;10.998;2023-04-25T00:20:12;13.30;99.90
26583;DHT22;14230;45.382;10.998;2023-04-25T00:22:40;13.30;99.90
26583;DHT22;14230;45.382;10.998;2023-04-25T00:25:07;13.40;99.90
26583;DHT22;14230;45.382;10.998;2023-04-25T00:27:35;13.40;99.90
26583;DHT22;14230;45.382;10.998;2023-04-25T00:30:03;13.50;99.90
26583;DHT22;14230;45.382;10.998;2023-04-25T00:32:30;13.50;99.90
26583;DHT22;14230;45.382;10.998;2023-04-25T00:34:58;13.50;99.90
26583;DHT22;14230;45.382;10.998;2023-04-25T00:37:25;13.50;99.90
26583;DHT22;14230;45.382;10.998;2023-04-25T00:39:53;13.50;99.90
26583;DHT22;14230;45.382;10.998;2023-04-25T00:42:23;13.50;99.90
26583;DHT22;14230;45.382;10.998;2023-04-25T00:44:52;13.50;99.90
26583;DHT22;14230;45.382;10.998;2023-04-25T00:47:20;13.50;99.90
26583;DHT22;14230;45.382;10.998;2023-04-25T00:49:48;13.50;99.90
26583;DHT22;14230;45.382;10.998;2023-04-25T00:52:15;13.50;99.90
26583;DHT22;14230;45.382;10.998;2023-04-25T00:54:43;13.60;99.90
26583;DHT22;14230;45.382;10.998;2023-04-25T00:57:11;13.60;99.90
26583;DHT22;14230;45.382;10.998;2023-04-25T00:59:38;13.60;99.90
26583;DHT22;14230;45.382;10.998;2023-04-25T01:02:10;13.60;99.90
26583;DHT22;14230;45.382;10.998;2023-04-25T01:04:38;13.70;99.90
26583;DHT22;14230;45.382;10.998;2023-04-25T01:07:06;13.60;99.90
26583;DHT22;14230;45.382;10.998;2023-04-25T01:09:34;13.60;99.90
26583;DHT22;14230;45.382;10.998;2023-04-25T01:12:02;13.60;99.90
26583;DHT22;14230;45.382;10.998;2023-04-25T01:14:30;13.60;99.90
26583;DHT22;14230;45.382;10.998;2023-04-25T01:16:58;13.60;99.90
26583;DHT22;14230;45.382;10.998;2023-04-25T01:19:26;13.60;99.90
26583;DHT22;14230;45.382;10.998;2023-04-25T01:21:53;13.70;99.90
26583;DHT22;14230;45.382;10.998;2023-04-25T01:24:21;13.60;99.90
26583;DHT22;14230;45.382;10.998;2023-04-25T01:26:49;13.70;99.90
26583;DHT22;14230;45.382;10.998;2023-04-25T01:29:23;13.70;99.90
26583;DHT22;14230;45.382;10.998;2023-04-25T01:31:52;13.60;99.90
26583;DHT22;14230;45.382;10.998;2023-04-25T01:34:20;13.60;99.90
26583;DHT22;14230;45.382;10.998;2023-04-25T01:36:49;13.60;99.90
26583;DHT22;14230;45.382;10.998;2023-04-25T01:39:18;13.50;99.90
26583;DHT22;14230;45.382;10.998;2023-04-25T01:41:47;13.50;99.90
26583;DHT22;14230;45.382;10.998;2023-04-25T01:44:14;13.40;99.90
26583;DHT22;14230;45.382;10.998;2023-04-25T01:46:42;13.40;99.90
26583;DHT22;14230;45.382;10.998;2023-04-25T01:49:11;13.40;99.90
26583;DHT22;14230;45.382;10.998;2023-04-25T01:51:40;13.40;99.90
26583;DHT22;14230;45.382;10.998;2023-04-25T01:54:08;13.50;99.90
26583;DHT22;14230;45.382;10.998;2023-04-25T01:56:37;13.50;99.90
26583;DHT22;14230;45.382;10.998;2023-04-25T01:59:07;13.50;99.90
26583;DHT22;14230;45.382;10.998;2023-04-25T02:02:04;13.50;99.90
26583;DHT22;14230;45.382;10.998;2023-04-25T02:04:33;13.50;99.90
26583;DHT22;14230;45.382;10.998;2023-04-25T02:07:02;13.50;99.90
26583;DHT22;14230;45.382;10.998;2023-04-25T02:09:44;13.50;99.90
26583;DHT22;14230;45.382;10.998;2023-04-25T02:12:12;13.50;99.90
26583;DHT22;14230;45.382;10.998;2023-04-25T02:14:58;13.50;99.90
26583;DHT22;14230;45.382;10.998;2023-04-25T02:17:58;13.50;99.90
26583;DHT22;14230;45.382;10.998;2023-04-25T02:20:29;13.50;99.90
26583;DHT22;14230;45.382;10.998;2023-04-25T02:22:57;13.50;99.90
26583;DHT22;14230;45.382;10.998;2023-04-25T02:25:24;13.50;99.90
26583;DHT22;14230;45.382;10.998;2023-04-25T02:27:53;13.50;99.90
26583;DHT22;14230;45.382;10.998;2023-04-25T02:30:21;13.50;99.90
26583;DHT22;14230;45.382;10.998;2023-04-25T02:32:48;13.50;99.90
26583;DHT22;14230;45.382;10.998;2023-04-25T02:35:16;13.40;99.90
26583;DHT22;14230;45.382;10.998;2023-04-25T02:37:43;13.50;99.90
26583;DHT22;14230;45.382;10.998;2023-04-25T02:40:13;13.50;99.90
26583;DHT22;14230;45.382;10.998;2023-04-25T02:42:40;13.60;99.90
26583;DHT22;14230;45.382;10.998;2023-04-25T02:45:08;13.60;99.90
26583;DHT22;14230;45.382;10.998;2023-04-25T02:47:36;13.60;99.90
26583;DHT22;14230;45.382;10.998;2023-04-25T02:50:04;13.60;99.90
26583;DHT22;14230;45.382;10.998;2023-04-25T02:52:31;13.60;99.90
26583;DHT22;14230;45.382;10.998;2023-04-25T02:55:08;13.60;99.90
26583;DHT22;14230;45.382;10.998;2023-04-25T02:57:36;13.60;99.90
26583;DHT22;14230;45.382;10.998;2023-04-25T03:00:04;13.50;99.90
26583;DHT22;14230;45.382;10.998;2023-04-25T03:02:32;13.60;99.90
26583;DHT22;14230;45.382;10.998;2023-04-25T03:05:01;13.60;99.90
26583;DHT22;14230;45.382;10.998;2023-04-25T03:07:28;13.60;99.90
26583;DHT22;14230;45.382;10.998;2023-04-25T03:09:56;13.60;99.90
26583;DHT22;14230;45.382;10.998;2023-04-25T03:12:23;13.50;99.90
26583;DHT22;14230;45.382;10.998;2023-04-25T03:14:51;13.40;99.90
26583;DHT22;14230;45.382;10.998;2023-04-25T03:17:19;13.30;99.90
26583;DHT22;14230;45.382;10.998;2023-04-25T03:19:46;13.30;99.90
26583;DHT22;14230;45.382;10.998;2023-04-25T03:22:14;13.30;99.90
26583;DHT22;14230;45.382;10.998;2023-04-25T03:24:41;13.20;99.90
26583;DHT22;14230;45.382;10.998;2023-04-25T03:27:09;13.20;99.90
26583;DHT22;14230;45.382;10.998;2023-04-25T03:29:36;13.20;99.90
26583;DHT22;14230;45.382;10.998;2023-04-25T03:32:05;13.20;99.90
26583;DHT22;14230;45.382;10.998;2023-04-25T03:34:32;13.30;99.90
26583;DHT22;14230;45.382;10.998;2023-04-25T03:37:00;13.30;99.90
26583;DHT22;14230;45.382;10.998;2023-04-25T03:39:29;13.30;99.90
26583;DHT22;14230;45.382;10.998;2023-04-25T03:41:57;13.30;99.90
26583;DHT22;14230;45.382;10.998;2023-04-25T03:44:24;13.20;99.90
26583;DHT22;14230;45.382;10.998;2023-04-25T03:46:52;13.20;99.90
26583;DHT22;14230;45.382;10.998;2023-04-25T03:49:20;13.20;99.90
26583;DHT22;14230;45.382;10.998;2023-04-25T03:52:13;13.30;99.90
26583;DHT22;14230;45.382;10.998;2023-04-25T03:54:41;13.20;99.90
26583;DHT22;14230;45.382;10.998;2023-04-25T03:57:11;13.20;99.90
26583;DHT22;14230;45.382;10.998;2023-04-25T03:59:39;13.20;99.90
26583;DHT22;14230;45.382;10.998;2023-04-25T04:02:09;13.20;99.90
26583;DHT22;14230;45.382;10.998;2023-04-25T04:04:38;13.20;99.90
26583;DHT22;14230;45.382;10.998;2023-04-25T04:07:06;13.10;99.90
26583;DHT22;14230;45.382;10.998;2023-04-25T04:09:36;13.20;99.90
26583;DHT22;14230;45.382;10.998;2023-04-25T04:12:09;13.20;99.90
26583;DHT22;14230;45.382;10.998;2023-04-25T04:14:39;13.20;99.90
26583;DHT22;14230;45.382;10.998;2023-04-25T04:17:07;13.30;99.90
26583;DHT22;14230;45.382;10.998;2023-04-25T04:19:35;13.40;99.90
26583;DHT22;14230;45.382;10.998;2023-04-25T04:22:10;13.40;99.90
26583;DHT22;14230;45.382;10.998;2023-04-25T04:24:39;13.50;99.90
26583;DHT22;14230;45.382;10.998;2023-04-25T04:27:08;13.50;99.90
26583;DHT22;14230;45.382;10.998;2023-04-25T04:30:05;13.50;99.90
26583;DHT22;14230;45.382;10.998;2023-04-25T04:32:38;13.60;99.90
26583;DHT22;14230;45.382;10.998;2023-04-25T04:35:06;13.70;99.90
26583;DHT22;14230;45.382;10.998;2023-04-25T04:37:34;13.70;99.90
26583;DHT22;14230;45.382;10.998;2023-04-25T04:40:02;13.70;99.90
26583;DHT22;14230;45.382;10.998;2023-04-25T04:42:44;13.60;99.90
26583;DHT22;14230;45.382;10.998;2023-04-25T04:45:25;13.70;99.90
26583;DHT22;14230;45.382;10.998;2023-04-25T04:48:26;13.70;99.90
26583;DHT22;14230;45.382;10.998;2023-04-25T04:51:13;13.60;99.90
26583;DHT22;14230;45.382;10.998;2023-04-25T04:53:59;13.70;99.90
26583;DHT22;14230;45.382;10.998;2023-04-25T04:56:45;13.60;99.90
26583;DHT22;14230;45.382;10.998;2023-04-25T04:59:31;13.70;99.90
26583;DHT22;14230;45.382;10.998;2023-04-25T05:02:06;13.70;99.90
26583;DHT22;14230;45.382;10.998;2023-04-25T05:04:52;13.80;99.90
26583;DHT22;14230;45.382;10.998;2023-04-25T05:07:40;13.80;99.90
26583;DHT22;14230;45.382;10.998;2023-04-25T05:10:25;13.70;99.90
26583;DHT22;14230;45.382;10.998;2023-04-25T05:13:18;13.70;99.90
26583;DHT22;14230;45.382;10.998;2023-04-25T05:16:14;13.70;99.90
26583;DHT22;14230;45.382;10.998;2023-04-25T05:19:14;13.70;99.90
26583;DHT22;14230;45.382;10.998;2023-04-25T05:22:02;13.30;99.90
26583;DHT22;14230;45.382;10.998;2023-04-25T05:24:38;12.10;99.90
26583;DHT22;14230;45.382;10.998;2023-04-25T05:27:25;11.20;99.90
26583;DHT22;14230;45.382;10.998;2023-04-25T05:30:10;10.60;99.90
26583;DHT22;14230;45.382;10.998;2023-04-25T05:33:06;10.10;99.90
26583;DHT22;14230;45.382;10.998;2023-04-25T05:35:34;9.80;99.90
26583;DHT22;14230;45.382;10.998;2023-04-25T05:38:01;9.50;99.90
26583;DHT22;14230;45.382;10.998;2023-04-25T05:41:00;9.30;99.90
26583;DHT22;14230;45.382;10.998;2023-04-25T05:43:48;9.10;99.90
26583;DHT22;14230;45.382;10.998;2023-04-25T05:46:27;9.00;99.90
26583;DHT22;14230;45.382;10.998;2023-04-25T05:49:13;9.00;99.90
26583;DHT22;14230;45.382;10.998;2023-04-25T05:51:53;9.00;99.90
26583;DHT22;14230;45.382;10.998;2023-04-25T05:54:39;9.00;99.90
26583;DHT22;14230;45.382;10.998;2023-04-25T05:57:07;9.00;99.90
26583;DHT22;14230;45.382;10.998;2023-04-25T05:59:35;9.10;99.90
26583;DHT22;14230;45.382;10.998;2023-04-25T06:02:03;9.30;99.90
26583;DHT22;14230;45.382;10.998;2023-04-25T06:04:33;9.40;99.90
26583;DHT22;14230;45.382;10.998;2023-04-25T06:07:01;9.50;99.90
26583;DHT22;14230;45.382;10.998;2023-04-25T06:09:29;9.70;99.90
26583;DHT22;14230;45.382;10.998;2023-04-25T06:11:56;9.80;99.90
26583;DHT22;14230;45.382;10.998;2023-04-25T06:14:24;10.00;99.90
26583;DHT22;14230;45.382;10.998;2023-04-25T06:16:53;10.10;99.90
26583;DHT22;14230;45.382;10.998;2023-04-25T06:19:21;10.20;99.90
26583;DHT22;14230;45.382;10.998;2023-04-25T06:21:48;10.20;99.90
26583;DHT22;14230;45.382;10.998;2023-04-25T06:24:16;10.30;99.90
26583;DHT22;14230;45.382;10.998;2023-04-25T06:26:44;10.40;99.90
26583;DHT22;14230;45.382;10.998;2023-04-25T06:29:11;10.40;99.90
26583;DHT22;14230;45.382;10.998;2023-04-25T06:31:39;10.50;99.90
26583;DHT22;14230;45.382;10.998;2023-04-25T06:34:07;10.50;99.90
26583;DHT22;14230;45.382;10.998;2023-04-25T06:36:37;10.60;99.90
26583;DHT22;14230;45.382;10.998;2023-04-25T06:39:08;10.80;99.90
26583;DHT22;14230;45.382;10.998;2023-04-25T06:41:36;11.00;99.90
26583;DHT22;14230;45.382;10.998;2023-04-25T06:44:06;11.10;99.90
26583;DHT22;14230;45.382;10.998;2023-04-25T06:46:49;11.30;99.90
26583;DHT22;14230;45.382;10.998;2023-04-25T06:49:16;11.50;99.90
26583;DHT22;14230;45.382;10.998;2023-04-25T06:51:44;11.70;99.90
26583;DHT22;14230;45.382;10.998;2023-04-25T06:54:11;12.30;99.90
26583;DHT22;14230;45.382;10.998;2023-04-25T06:56:47;13.30;99.90
26583;DHT22;14230;45.382;10.998;2023-04-25T06:59:15;14.50;99.90
26583;DHT22;14230;45.382;10.998;2023-04-25T07:01:45;14.20;99.90
26583;DHT22;14230;45.382;10.998;2023-04-25T07:04:19;13.90;99.90
26583;DHT22;14230;45.382;10.998;2023-04-25T07:06:53;13.60;99.90
26583;DHT22;14230;45.382;10.998;2023-04-25T07:09:29;13.90;99.90
26583;DHT22;14230;45.382;10.998;2023-04-25T07:11:57;15.10;99.90
26583;DHT22;14230;45.382;10.998;2023-04-25T07:14:24;15.50;99.90
26583;DHT22;14230;45.382;10.998;2023-04-25T07:16:52;15.40;99.90
26583;DHT22;14230;45.382;10.998;2023-04-25T07:19:20;14.70;99.90
26583;DHT22;14230;45.382;10.998;2023-04-25T07:21:48;14.00;99.90
26583;DHT22;14230;45.382;10.998;2023-04-25T07:24:18;13.40;99.90
26583;DHT22;14230;45.382;10.998;2023-04-25T07:26:47;13.00;99.90
26583;DHT22;14230;45.382;10.998;2023-04-25T07:29:37;12.90;99.90
26583;DHT22;14230;45.382;10.998;2023-04-25T07:32:05;12.60;99.90
26583;DHT22;14230;45.382;10.998;2023-04-25T07:34:32;12.40;99.90
26583;DHT22;14230;45.382;10.998;2023-04-25T07:37:04;12.30;99.90
26583;DHT22;14230;45.382;10.998;2023-04-25T07:39:40;12.20;99.90
26583;DHT22;14230;45.382;10.998;2023-04-25T07:42:08;12.00;99.90
26583;DHT22;14230;45.382;10.998;2023-04-25T07:44:38;11.80;99.90
26583;DHT22;14230;45.382;10.998;2023-04-25T07:47:09;11.50;99.90
26583;DHT22;14230;45.382;10.998;2023-04-25T07:49:37;11.40;99.90
26583;DHT22;14230;45.382;10.998;2023-04-25T07:52:06;11.30;99.90
26583;DHT22;14230;45.382;10.998;2023-04-25T07:54:36;11.20;99.90
26583;DHT22;14230;45.382;10.998;2023-04-25T07:57:11;11.20;99.90
26583;DHT22;14230;45.382;10.998;2023-04-25T07:59:43;11.10;99.90
26583;DHT22;14230;45.382;10.998;2023-04-25T08:02:10;11.10;99.90
26583;DHT22;14230;45.382;10.998;2023-04-25T08:04:39;11.00;99.90
26583;DHT22;14230;45.382;10.998;2023-04-25T08:07:09;11.00;99.90
26583;DHT22;14230;45.382;10.998;2023-04-25T08:09:48;11.00;99.90
26583;DHT22;14230;45.382;10.998;2023-04-25T08:12:24;11.10;99.90
26583;DHT22;14230;45.382;10.998;2023-04-25T08:14:52;11.10;99.90
26583;DHT22;14230;45.382;10.998;2023-04-25T08:17:20;11.10;99.90
26583;DHT22;14230;45.382;10.998;2023-04-25T08:19:48;11.30;99.90
26583;DHT22;14230;45.382;10.998;2023-04-25T08:22:30;12.40;99.90
26583;DHT22;14230;45.382;10.998;2023-04-25T08:25:33;13.50;99.90
26583;DHT22;14230;45.382;10.998;2023-04-25T08:28:01;15.00;99.90
26583;DHT22;14230;45.382;10.998;2023-04-25T08:30:30;15.30;99.90
26583;DHT22;14230;45.382;10.998;2023-04-25T08:32:58;16.10;99.90
26583;DHT22;14230;45.382;10.998;2023-04-25T08:35:44;16.80;99.90
26583;DHT22;14230;45.382;10.998;2023-04-25T08:38:13;16.50;99.90
26583;DHT22;14230;45.382;10.998;2023-04-25T08:40:43;16.10;99.90
26583;DHT22;14230;45.382;10.998;2023-04-25T08:43:18;16.10;99.90
26583;DHT22;14230;45.382;10.998;2023-04-25T08:45:47;17.20;99.90
26583;DHT22;14230;45.382;10.998;2023-04-25T08:48:24;17.60;99.90
26583;DHT22;14230;45.382;10.998;2023-04-25T08:50:55;16.40;99.90
26583;DHT22;14230;45.382;10.998;2023-04-25T08:53:27;16.30;99.90
26583;DHT22;14230;45.382;10.998;2023-04-25T08:56:00;17.70;99.90
26583;DHT22;14230;45.382;10.998;2023-04-25T08:58:29;19.10;99.90
26583;DHT22;14230;45.382;10.998;2023-04-25T09:00:56;19.70;99.90
26583;DHT22;14230;45.382;10.998;2023-04-25T09:03:27;20.60;99.90
26583;DHT22;14230;45.382;10.998;2023-04-25T09:05:55;20.40;99.90
26583;DHT22;14230;45.382;10.998;2023-04-25T09:08:23;20.50;99.90
26583;DHT22;14230;45.382;10.998;2023-04-25T09:10:51;20.50;99.90
26583;DHT22;14230;45.382;10.998;2023-04-25T09:13:25;19.70;99.90
26583;DHT22;14230;45.382;10.998;2023-04-25T09:16:19;19.50;99.90
26583;DHT22;14230;45.382;10.998;2023-04-25T09:19:07;19.60;99.90
26583;DHT22;14230;45.382;10.998;2023-04-25T09:21:35;20.00;99.90
26583;DHT22;14230;45.382;10.998;2023-04-25T09:24:03;19.80;99.90
26583;DHT22;14230;45.382;10.998;2023-04-25T09:26:31;19.40;99.90
26583;DHT22;14230;45.382;10.998;2023-04-25T09:29:07;19.40;99.90
26583;DHT22;14230;45.382;10.998;2023-04-25T09:31:39;19.40;99.90
26583;DHT22;14230;45.382;10.998;2023-04-25T09:34:08;20.00;99.90
26583;DHT22;14230;45.382;10.998;2023-04-25T09:36:43;20.00;99.90
26583;DHT22;14230;45.382;10.998;2023-04-25T09:39:38;19.70;99.90
26583;DHT22;14230;45.382;10.998;2023-04-25T09:42:14;19.70;99.90
26583;DHT22;14230;45.382;10.998;2023-04-25T09:44:45;19.40;99.90
26583;DHT22;14230;45.382;10.998;2023-04-25T09:47:14;20.10;99.90
26583;DHT22;14230;45.382;10.998;2023-04-25T09:49:44;20.80;99.90
26583;DHT22;14230;45.382;10.998;2023-04-25T09:52:16;20.90;99.90
26583;DHT22;14230;45.382;10.998;2023-04-25T09:55:07;20.90;99.90
26583;DHT22;14230;45.382;10.998;2023-04-25T09:57:35;21.30;99.90
26583;DHT22;14230;45.382;10.998;2023-04-25T10:00:07;20.90;99.90
26583;DHT22;14230;45.382;10.998;2023-04-25T10:02:42;20.70;99.90
26583;DHT22;14230;45.382;10.998;2023-04-25T10:05:30;21.00;99.90
26583;DHT22;14230;45.382;10.998;2023-04-25T10:08:02;21.10;99.90
26583;DHT22;14230;45.382;10.998;2023-04-25T10:10:32;20.80;99.90
26583;DHT22;14230;45.382;10.998;2023-04-25T10:13:06;21.00;99.90
26583;DHT22;14230;45.382;10.998;2023-04-25T10:15:35;21.10;99.90
26583;DHT22;14230;45.382;10.998;2023-04-25T10:18:06;20.70;99.90
26583;DHT22;14230;45.382;10.998;2023-04-25T10:20:34;21.00;99.90
26583;DHT22;14230;45.382;10.998;2023-04-25T10:23:08;20.70;99.90
26583;DHT22;14230;45.382;10.998;2023-04-25T10:25:39;20.20;99.90
26583;DHT22;14230;45.382;10.998;2023-04-25T10:28:07;19.60;99.90
26583;DHT22;14230;45.382;10.998;2023-04-25T10:30:34;19.00;99.90
26583;DHT22;14230;45.382;10.998;2023-04-25T10:33:16;18.70;99.90
26583;DHT22;14230;45.382;10.998;2023-04-25T10:35:45;19.00;99.90
26583;DHT22;14230;45.382;10.998;2023-04-25T10:38:14;18.80;99.90
26583;DHT22;14230;45.382;10.998;2023-04-25T10:40:42;18.30;99.90
26583;DHT22;14230;45.382;10.998;2023-04-25T10:43:46;17.60;99.90
26583;DHT22;14230;45.382;10.998;2023-04-25T10:46:18;17.50;99.90
26583;DHT22;14230;45.382;10.998;2023-04-25T10:48:51;17.60;99.90
26583;DHT22;14230;45.382;10.998;2023-04-25T10:51:31;17.60;99.90
26583;DHT22;14230;45.382;10.998;2023-04-25T10:54:22;17.40;99.90
26583;DHT22;14230;45.382;10.998;2023-04-25T10:56:50;18.20;99.90
26583;DHT22;14230;45.382;10.998;2023-04-25T10:59:19;17.90;99.90
26583;DHT22;14230;45.382;10.998;2023-04-25T11:01:48;17.10;99.90
26583;DHT22;14230;45.382;10.998;2023-04-25T11:04:38;17.30;99.90
26583;DHT22;14230;45.382;10.998;2023-04-25T11:07:18;17.20;99.90
26583;DHT22;14230;45.382;10.998;2023-04-25T11:09:51;17.10;99.90
26583;DHT22;14230;45.382;10.998;2023-04-25T11:12:18;17.00;99.90
26583;DHT22;14230;45.382;10.998;2023-04-25T11:14:46;16.90;99.90
26583;DHT22;14230;45.382;10.998;2023-04-25T11:17:13;16.70;99.90
26583;DHT22;14230;45.382;10.998;2023-04-25T11:19:41;16.60;99.90
26583;DHT22;14230;45.382;10.998;2023-04-25T11:22:10;16.60;99.90
26583;DHT22;14230;45.382;10.998;2023-04-25T11:24:37;16.40;99.90
26583;DHT22;14230;45.382;10.998;2023-04-25T11:27:05;16.40;99.90
26583;DHT22;14230;45.382;10.998;2023-04-25T11:29:34;16.40;99.90
26583;DHT22;14230;45.382;10.998;2023-04-25T11:32:02;16.60;99.90
26583;DHT22;14230;45.382;10.998;2023-04-25T11:34:33;16.40;99.90
26583;DHT22;14230;45.382;10.998;2023-04-25T11:37:01;16.30;99.90
26583;DHT22;14230;45.382;10.998;2023-04-25T11:39:30;16.40;99.90
26583;DHT22;14230;45.382;10.998;2023-04-25T11:41:58;16.50;99.90
26583;DHT22;14230;45.382;10.998;2023-04-25T11:44:28;16.60;99.90
26583;DHT22;14230;45.382;10.998;2023-04-25T11:46:55;16.70;99.90
26583;DHT22;14230;45.382;10.998;2023-04-25T11:49:24;16.70;99.90
26583;DHT22;14230;45.382;10.998;2023-04-25T11:51:59;16.60;99.90
26583;DHT22;14230;45.382;10.998;2023-04-25T11:54:27;16.70;99.90
26583;DHT22;14230;45.382;10.998;2023-04-25T11:56:54;17.10;99.90
26583;DHT22;14230;45.382;10.998;2023-04-25T11:59:25;17.10;99.90
26583;DHT22;14230;45.382;10.998;2023-04-25T12:01:53;17.00;99.90
26583;DHT22;14230;45.382;10.998;2023-04-25T12:04:23;16.90;99.90
26583;DHT22;14230;45.382;10.998;2023-04-25T12:06:53;17.10;99.90
26583;DHT22;14230;45.382;10.998;2023-04-25T12:09:28;17.50;99.90
26583;DHT22;14230;45.382;10.998;2023-04-25T12:11:57;17.80;99.90
26583;DHT22;14230;45.382;10.998;2023-04-25T12:14:27;17.80;99.90
26583;DHT22;14230;45.382;10.998;2023-04-25T12:16:57;17.80;99.90
26583;DHT22;14230;45.382;10.998;2023-04-25T12:19:26;17.70;99.90
26583;DHT22;14230;45.382;10.998;2023-04-25T12:21:53;17.70;99.90
26583;DHT22;14230;45.382;10.998;2023-04-25T12:24:26;17.50;99.90
26583;DHT22;14230;45.382;10.998;2023-04-25T12:27:07;17.20;99.90
26583;DHT22;14230;45.382;10.998;2023-04-25T12:29:50;17.00;99.90
26583;DHT22;14230;45.382;10.998;2023-04-25T12:32:18;17.00;99.90
26583;DHT22;14230;45.382;10.998;2023-04-25T12:34:46;17.10;99.90
26583;DHT22;14230;45.382;10.998;2023-04-25T12:37:14;16.70;99.90
26583;DHT22;14230;45.382;10.998;2023-04-25T12:39:42;16.70;99.90
26583;DHT22;14230;45.382;10.998;2023-04-25T12:42:09;16.70;99.90
26583;DHT22;14230;45.382;10.998;2023-04-25T12:44:39;16.50;99.90
26583;DHT22;14230;45.382;10.998;2023-04-25T12:47:07;16.40;99.90
26583;DHT22;14230;45.382;10.998;2023-04-25T12:49:35;16.30;99.90
26583;DHT22;14230;45.382;10.998;2023-04-25T12:52:03;16.10;99.90
26583;DHT22;14230;45.382;10.998;2023-04-25T12:54:30;15.90;99.90
26583;DHT22;14230;45.382;10.998;2023-04-25T12:56:58;15.70;99.90
26583;DHT22;14230;45.382;10.998;2023-04-25T12:59:26;15.50;99.90
26583;DHT22;14230;45.382;10.998;2023-04-25T13:01:53;15.40;99.90
26583;DHT22;14230;45.382;10.998;2023-04-25T13:04:21;15.30;99.90
26583;DHT22;14230;45.382;10.998;2023-04-25T13:06:49;15.20;99.90
26583;DHT22;14230;45.382;10.998;2023-04-25T13:09:16;15.20;99.90
26583;DHT22;14230;45.382;10.998;2023-04-25T13:11:44;15.20;99.90
26583;DHT22;14230;45.382;10.998;2023-04-25T13:14:12;15.20;99.90
26583;DHT22;14230;45.382;10.998;2023-04-25T13:16:39;15.20;99.90
26583;DHT22;14230;45.382;10.998;2023-04-25T13:19:07;15.10;99.90
26583;DHT22;14230;45.382;10.998;2023-04-25T13:21:35;14.90;99.90
26583;DHT22;14230;45.382;10.998;2023-04-25T13:24:03;14.80;99.90
26583;DHT22;14230;45.382;10.998;2023-04-25T13:26:30;14.50;99.90
26583;DHT22;14230;45.382;10.998;2023-04-25T13:28:58;14.30;99.90
26583;DHT22;14230;45.382;10.998;2023-04-25T13:31:25;14.20;99.90
26583;DHT22;14230;45.382;10.998;2023-04-25T13:33:53;14.00;99.90
26583;DHT22;14230;45.382;10.998;2023-04-25T13:36:20;13.90;99.90
26583;DHT22;14230;45.382;10.998;2023-04-25T13:38:48;13.70;99.90
26583;DHT22;14230;45.382;10.998;2023-04-25T13:41:16;13.60;99.90
26583;DHT22;14230;45.382;10.998;2023-04-25T13:43:46;13.50;99.90
26583;DHT22;14230;45.382;10.998;2023-04-25T13:46:15;13.50;99.90
26583;DHT22;14230;45.382;10.998;2023-04-25T13:49:06;13.30;99.90
26583;DHT22;14230;45.382;10.998;2023-04-25T13:51:40;13.30;99.90
26583;DHT22;14230;45.382;10.998;2023-04-25T13:54:07;13.20;99.90
26583;DHT22;14230;45.382;10.998;2023-04-25T13:56:35;13.00;99.90
26583;DHT22;14230;45.382;10.998;2023-04-25T13:59:03;12.90;99.90
26583;DHT22;14230;45.382;10.998;2023-04-25T14:01:30;12.70;99.90
26583;DHT22;14230;45.382;10.998;2023-04-25T14:04:02;12.70;99.90
26583;DHT22;14230;45.382;10.998;2023-04-25T14:06:32;12.60;99.90
26583;DHT22;14230;45.382;10.998;2023-04-25T14:09:00;12.50;99.90
26583;DHT22;14230;45.382;10.998;2023-04-25T14:11:31;12.40;99.90
26583;DHT22;14230;45.382;10.998;2023-04-25T14:13:59;12.40;99.90
26583;DHT22;14230;45.382;10.998;2023-04-25T14:16:27;12.40;99.90
26583;DHT22;14230;45.382;10.998;2023-04-25T14:18:55;12.30;99.90
26583;DHT22;14230;45.382;10.998;2023-04-25T14:21:22;12.30;99.90
26583;DHT22;14230;45.382;10.998;2023-04-25T14:23:50;12.30;99.90
26583;DHT22;14230;45.382;10.998;2023-04-25T14:26:18;12.10;99.90
26583;DHT22;14230;45.382;10.998;2023-04-25T14:28:45;12.10;99.90
26583;DHT22;14230;45.382;10.998;2023-04-25T14:31:13;12.30;99.90
26583;DHT22;14230;45.382;10.998;2023-04-25T14:33:40;12.30;99.90
26583;DHT22;14230;45.382;10.998;2023-04-25T14:36:09;12.30;99.90
26583;DHT22;14230;45.382;10.998;2023-04-25T14:38:37;12.50;99.90
26583;DHT22;14230;45.382;10.998;2023-04-25T14:41:05;12.50;99.90
26583;DHT22;14230;45.382;10.998;2023-04-25T14:43:36;12.40;99.90
26583;DHT22;14230;45.382;10.998;2023-04-25T14:46:03;12.40;99.90
26583;DHT22;14230;45.382;10.998;2023-04-25T14:48:31;12.40;99.90
26583;DHT22;14230;45.382;10.998;2023-04-25T14:50:59;12.40;99.90
26583;DHT22;14230;45.382;10.998;2023-04-25T14:53:28;12.40;99.90
26583;DHT22;14230;45.382;10.998;2023-04-25T14:55:55;12.30;99.90
26583;DHT22;14230;45.382;10.998;2023-04-25T14:58:23;12.20;99.90
26583;DHT22;14230;45.382;10.998;2023-04-25T15:00:50;12.20;99.90
26583;DHT22;14230;45.382;10.998;2023-04-25T15:03:18;12.10;99.90
26583;DHT22;14230;45.382;10.998;2023-04-25T15:05:46;12.20;99.90
26583;DHT22;14230;45.382;10.998;2023-04-25T15:08:13;12.40;99.90
26583;DHT22;14230;45.382;10.998;2023-04-25T15:10:41;12.30;99.90
26583;DHT22;14230;45.382;10.998;2023-04-25T15:13:08;12.40;99.90
26583;DHT22;14230;45.382;10.998;2023-04-25T15:15:37;12.40;99.90
26583;DHT22;14230;45.382;10.998;2023-04-25T15:18:05;12.60;99.90
26583;DHT22;14230;45.382;10.998;2023-04-25T15:20:32;12.80;99.90
26583;DHT22;14230;45.382;10.998;2023-04-25T15:23:00;12.90;99.90
26583;DHT22;14230;45.382;10.998;2023-04-25T15:25:30;12.80;99.90
26583;DHT22;14230;45.382;10.998;2023-04-25T15:27:57;12.90;99.90
26583;DHT22;14230;45.382;10.998;2023-04-25T15:30:25;12.80;99.90
26583;DHT22;14230;45.382;10.998;2023-04-25T15:32:52;12.80;99.90
26583;DHT22;14230;45.382;10.998;2023-04-25T15:35:20;12.90;99.90
26583;DHT22;14230;45.382;10.998;2023-04-25T15:37:47;13.10;99.90
26583;DHT22;14230;45.382;10.998;2023-04-25T15:40:15;13.20;99.90
26583;DHT22;14230;45.382;10.998;2023-04-25T15:42:52;13.20;99.90